Time;durP1;ratioP1;P1;durP2;ratioP2;P2;SDS_P1;SDS_P2;PMS_P1;PMS_P2;Temp;Humidity;BMP_temperature;BMP_pressure;BME280_temperature;BME280_humidity;BME280_pressure;Samples;Min_cycle;Max_cycle;Signal;HPM_P1;HPM_P2
2021/12/29 00:01:28;;;;;;;;;;;12.90;62.50;;;;;;5229061;28;20019;-32
2021/12/29 00:03:59;;;;;;;;;;;12.90;63.10;;;;;;5228834;28;19925;-32
2021/12/29 00:06:30;;;;;;;;;;;12.80;62.80;;;;;;5228565;28;19974;-31
2021/12/29 00:09:02;;;;;;;;;;;12.90;62.70;;;;;;5228438;28;19921;-36
2021/12/29 00:11:38;;;;;;;;;;;12.90;62.40;;;;;;5228951;28;19982;-37
2021/12/29 00:14:09;;;;;;;;;;;12.90;62.40;;;;;;5227105;28;19920;-37
2021/12/29 00:16:40;;;;;;;;;;;12.90;62.10;;;;;;5228428;28;19920;-29
2021/12/29 00:19:11;;;;;;;;;;;12.80;62.10;;;;;;5228546;28;19966;-34
2021/12/29 00:21:42;;;;;;;;;;;12.80;62.10;;;;;;5228497;28;20015;-32
2021/12/29 00:24:13;;;;;;;;;;;12.70;62.10;;;;;;5228537;28;19927;-30
2021/12/29 00:26:44;;;;;;;;;;;12.80;62.10;;;;;;5228576;28;20356;-34
2021/12/29 00:29:16;;;;;;;;;;;12.80;62.20;;;;;;5228418;28;19921;-30
2021/12/29 00:31:46;;;;;;;;;;;12.70;62.10;;;;;;5228188;28;19928;-33
2021/12/29 00:34:19;;;;;;;;;;;12.70;62.10;;;;;;5228873;28;19920;-35
2021/12/29 00:36:50;;;;;;;;;;;12.70;62.20;;;;;;5226736;28;19921;-35
2021/12/29 00:39:21;;;;;;;;;;;12.80;62.30;;;;;;5228455;28;20267;-29
2021/12/29 00:41:51;;;;;;;;;;;12.70;62.30;;;;;;5227749;28;19943;-35
2021/12/29 00:44:23;;;;;;;;;;;12.70;62.30;;;;;;5228213;28;19921;-33
2021/12/29 00:46:54;;;;;;;;;;;12.80;62.30;;;;;;5228067;28;19921;-33
2021/12/29 00:49:36;;;;;;;;;;;12.70;62.30;;;;;;5228204;28;20298;-28
2021/12/29 00:52:07;;;;;;;;;;;12.70;62.50;;;;;;5227995;28;19943;-33
2021/12/29 00:54:39;;;;;;;;;;;12.70;62.50;;;;;;5228325;28;19960;-34
2021/12/29 00:57:10;;;;;;;;;;;12.70;62.70;;;;;;5243689;28;19927;-30
2021/12/29 00:59:41;;;;;;;;;;;12.70;62.60;;;;;;5228284;28;19921;-33
2021/12/29 01:02:12;;;;;;;;;;;12.70;62.80;;;;;;5232250;28;19928;-32
2021/12/29 01:04:43;;;;;;;;;;;12.60;62.70;;;;;;5232171;28;19927;-33
2021/12/29 01:07:14;;;;;;;;;;;12.60;62.90;;;;;;5232539;28;19920;-35
2021/12/29 01:09:45;;;;;;;;;;;12.60;63.00;;;;;;5232063;28;20373;-33
2021/12/29 01:12:16;;;;;;;;;;;12.60;62.90;;;;;;5230834;28;19921;-36
2021/12/29 01:14:53;;;;;;;;;;;12.60;62.90;;;;;;5231791;28;20010;-31
2021/12/29 01:17:24;;;;;;;;;;;12.60;62.90;;;;;;5231521;28;20362;-36
2021/12/29 01:19:56;;;;;;;;;;;12.60;63.00;;;;;;5231691;28;19932;-31
2021/12/29 01:22:27;;;;;;;;;;;12.60;63.10;;;;;;5231234;28;19921;-34
2021/12/29 01:24:58;;;;;;;;;;;12.60;63.20;;;;;;5231852;28;19928;-32
2021/12/29 01:27:29;;;;;;;;;;;12.60;63.10;;;;;;5231770;28;19920;-31
2021/12/29 01:30:00;;;;;;;;;;;12.50;62.90;;;;;;5231652;28;19975;-29
2021/12/29 01:32:32;;;;;;;;;;;12.60;63.20;;;;;;5231641;28;20362;-36
2021/12/29 01:35:03;;;;;;;;;;;12.60;63.20;;;;;;5231894;28;19924;-31
2021/12/29 01:37:34;;;;;;;;;;;12.60;63.30;;;;;;5230720;28;19921;-30
2021/12/29 01:40:06;;;;;;;;;;;12.60;63.30;;;;;;5231710;28;19924;-32
2021/12/29 01:42:37;;;;;;;;;;;12.60;63.40;;;;;;5231474;28;19925;-30
2021/12/29 01:45:09;;;;;;;;;;;12.60;63.40;;;;;;5247367;28;19921;-31
2021/12/29 01:47:39;;;;;;;;;;;12.50;63.50;;;;;;5231493;28;19921;-32
2021/12/29 01:50:11;;;;;;;;;;;12.50;63.50;;;;;;5231616;28;20015;-34
2021/12/29 01:52:42;;;;;;;;;;;12.50;63.60;;;;;;5231302;28;19928;-33
2021/12/29 01:55:14;;;;;;;;;;;12.50;63.70;;;;;;5230199;28;19921;-32
2021/12/29 01:57:45;;;;;;;;;;;12.50;63.80;;;;;;5231228;28;19924;-31
2021/12/29 02:00:17;;;;;;;;;;;12.50;63.90;;;;;;5246780;28;19921;-34
2021/12/29 02:02:49;;;;;;;;;;;12.50;63.90;;;;;;5230969;28;20011;-33
2021/12/29 02:05:20;;;;;;;;;;;12.50;64.10;;;;;;5231031;28;19921;-36
2021/12/29 02:07:51;;;;;;;;;;;12.50;64.20;;;;;;5230741;28;20003;-38
2021/12/29 02:10:24;;;;;;;;;;;12.40;64.20;;;;;;5230745;28;19921;-30
2021/12/29 02:12:55;;;;;;;;;;;12.40;64.60;;;;;;5230053;28;20374;-35
2021/12/29 02:15:26;;;;;;;;;;;12.40;65.70;;;;;;5246407;28;19921;-33
2021/12/29 02:17:57;;;;;;;;;;;12.40;65.90;;;;;;5230831;28;19927;-31
2021/12/29 02:20:28;;;;;;;;;;;12.50;65.70;;;;;;5230843;28;20365;-33
2021/12/29 02:23:13;;;;;;;;;;;12.50;65.40;;;;;;5230567;28;19925;-32
2021/12/29 02:25:49;;;;;;;;;;;12.50;65.20;;;;;;5230602;28;20011;-33
2021/12/29 02:28:24;;;;;;;;;;;12.50;65.20;;;;;;5230533;28;19928;-33
2021/12/29 02:30:55;;;;;;;;;;;12.50;65.00;;;;;;5230675;28;20255;-34
2021/12/29 02:33:26;;;;;;;;;;;12.50;64.90;;;;;;5230899;28;20358;-32
2021/12/29 02:35:58;;;;;;;;;;;12.40;64.90;;;;;;5230295;28;19921;-33
2021/12/29 02:38:30;;;;;;;;;;;12.40;64.80;;;;;;5230373;28;19924;-34
2021/12/29 02:41:04;;;;;;;;;;;12.40;64.80;;;;;;5230213;28;20015;-31
2021/12/29 02:43:39;;;;;;;;;;;12.40;64.70;;;;;;5230382;28;19959;-31
2021/12/29 02:46:11;;;;;;;;;;;12.40;64.80;;;;;;5230792;28;20408;-31
2021/12/29 02:48:49;;;;;;;;;;;12.40;64.70;;;;;;5230207;28;19924;-32
2021/12/29 02:51:20;;;;;;;;;;;12.40;64.70;;;;;;5229711;28;19920;-30
2021/12/29 02:53:50;;;;;;;;;;;12.40;64.80;;;;;;5230079;28;19924;-36
2021/12/29 02:56:22;;;;;;;;;;;12.40;64.70;;;;;;5230587;28;20304;-33
2021/12/29 02:58:53;;;;;;;;;;;12.40;64.80;;;;;;5229941;28;19959;-34
2021/12/29 03:01:26;;;;;;;;;;;12.40;64.70;;;;;;5229787;28;19955;-34
2021/12/29 03:03:57;;;;;;;;;;;12.40;64.80;;;;;;5229999;28;20380;-31
2021/12/29 03:06:28;;;;;;;;;;;12.40;64.90;;;;;;5229931;28;20388;-31
2021/12/29 03:08:58;;;;;;;;;;;12.40;64.80;;;;;;5211900;28;19924;-38
2021/12/29 03:11:29;;;;;;;;;;;12.40;64.80;;;;;;5230207;28;19967;-36
2021/12/29 03:14:00;;;;;;;;;;;12.40;64.80;;;;;;5229615;28;20019;-34
2021/12/29 03:16:33;;;;;;;;;;;12.40;64.80;;;;;;5229440;28;19928;-31
2021/12/29 03:19:04;;;;;;;;;;;12.40;64.80;;;;;;5229890;28;20029;-33
2021/12/29 03:21:35;;;;;;;;;;;12.40;64.80;;;;;;5229093;28;20332;-34
2021/12/29 03:24:08;;;;;;;;;;;12.40;64.70;;;;;;5229281;28;20023;-31
2021/12/29 03:26:39;;;;;;;;;;;12.40;64.70;;;;;;5244363;28;19960;-31
2021/12/29 03:29:10;;;;;;;;;;;12.40;64.80;;;;;;5229466;28;19956;-34
2021/12/29 03:31:43;;;;;;;;;;;12.40;64.80;;;;;;5229425;28;19927;-34
2021/12/29 03:34:15;;;;;;;;;;;12.30;64.60;;;;;;5229317;28;19920;-33
2021/12/29 03:36:46;;;;;;;;;;;12.30;64.70;;;;;;5228730;28;20383;-31
2021/12/29 03:39:17;;;;;;;;;;;12.40;64.70;;;;;;5229290;28;20062;-32
2021/12/29 03:41:48;;;;;;;;;;;12.30;64.80;;;;;;5229401;28;20323;-34
2021/12/29 03:44:19;;;;;;;;;;;12.30;64.60;;;;;;5227576;28;20015;-34
2021/12/29 03:46:50;;;;;;;;;;;12.40;64.70;;;;;;5229038;28;20007;-33
2021/12/29 03:49:20;;;;;;;;;;;12.30;64.70;;;;;;5229014;28;20011;-32
2021/12/29 03:51:52;;;;;;;;;;;12.30;64.60;;;;;;5228813;28;19921;-33
2021/12/29 03:54:22;;;;;;;;;;;12.30;64.50;;;;;;5229413;28;19921;-30
2021/12/29 03:56:54;;;;;;;;;;;12.30;64.40;;;;;;5228719;28;20322;-32
2021/12/29 03:59:25;;;;;;;;;;;12.30;64.40;;;;;;5228952;28;20019;-33
2021/12/29 04:01:55;;;;;;;;;;;12.30;64.40;;;;;;5228599;28;19925;-33
2021/12/29 04:04:26;;;;;;;;;;;12.20;64.60;;;;;;5244157;28;19944;-34
2021/12/29 04:06:57;;;;;;;;;;;12.20;65.50;;;;;;5228146;28;19921;-32
2021/12/29 04:09:28;;;;;;;;;;;12.10;66.10;;;;;;5227656;28;20259;-32
2021/12/29 04:11:59;;;;;;;;;;;12.20;65.70;;;;;;5210765;28;20428;-35
2021/12/29 04:14:30;;;;;;;;;;;12.20;65.30;;;;;;5227860;28;19952;-35
2021/12/29 04:17:08;;;;;;;;;;;12.30;65.10;;;;;;5218722;28;19921;-30
2021/12/29 04:22:29;;;;;;;;;;;12.30;64.70;;;;;;5224874;28;19928;-33
2021/12/29 04:25:00;;;;;;;;;;;12.30;64.60;;;;;;5228250;28;19943;-28
2021/12/29 04:27:31;;;;;;;;;;;12.40;64.60;;;;;;5228525;28;20412;-30
2021/12/29 04:30:02;;;;;;;;;;;12.40;64.30;;;;;;5228647;28;19951;-29
2021/12/29 04:32:33;;;;;;;19.73;15.70;;;12.50;64.10;;;;;;5203134;28;19927;-34
2021/12/29 04:35:04;;;;;;;;;;;12.10;64.20;;;;;;5207610;28;20116;-28
2021/12/29 04:37:35;;;;;;;;;;;10.70;67.80;;;;;;5206757;28;19925;-32
2021/12/29 04:40:06;;;;;;;;;;;9.80;69.10;;;;;;5207863;28;19975;-27
2021/12/29 04:42:37;;;;;;;21.63;16.63;;;9.40;70.40;;;;;;5222587;28;20267;-30
2021/12/29 04:45:08;;;;;;;20.53;15.80;;;9.10;70.70;;;;;;5206497;28;20055;-30
2021/12/29 04:47:42;;;;;;;25.63;18.63;;;8.90;71.30;;;;;;5206548;28;20057;-33
2021/12/29 04:50:37;;;;;;;23.45;18.15;;;8.90;71.60;;;;;;5207681;28;20050;-29
2021/12/29 04:53:10;;;;;;;26.13;21.30;;;8.80;72.10;;;;;;5212785;28;20456;-27
2021/12/29 04:55:45;;;;;;;29.43;24.33;;;8.70;72.20;;;;;;5227491;28;20065;-32
2021/12/29 04:58:18;;;;;;;46.67;38.70;;;8.70;72.10;;;;;;5223213;28;20134;-29
2021/12/29 05:00:49;;;;;;;;;;;8.70;72.30;;;;;;5207110;28;20455;-30
2021/12/29 05:03:21;;;;;;;25.80;18.67;;;8.70;73.70;;;;;;5206250;28;19967;-28
2021/12/29 05:05:55;;;;;;;22.47;17.80;;;8.80;72.90;;;;;;5205962;28;20124;-33
2021/12/29 05:08:26;;;;;;;24.50;18.83;;;8.70;72.70;;;;;;5189196;28;20060;-29
2021/12/29 05:10:59;;;;;;;23.30;18.40;;;8.70;72.60;;;;;;5206333;28;20057;-29
2021/12/29 05:13:32;;;;;;;24.90;20.20;;;8.60;73.10;;;;;;5205053;28;20049;-33
2021/12/29 05:16:03;;;;;;;24.38;20.30;;;8.50;73.30;;;;;;5205899;28;20046;-32
2021/12/29 05:18:36;;;;;;;30.47;22.60;;;8.40;73.50;;;;;;5205441;28;20076;-30
2021/12/29 05:21:07;;;;;;;26.37;19.47;;;8.30;73.90;;;;;;5206643;28;20092;-33
2021/12/29 05:23:38;;;;;;;26.07;20.50;;;8.30;74.00;;;;;;5206578;28;20046;-32
2021/12/29 05:26:09;;;;;;;29.47;21.60;;;8.20;74.70;;;;;;5206537;28;20056;-30
2021/12/29 05:28:40;;;;;;;32.63;24.47;;;8.10;74.50;;;;;;5205839;28;20037;-31
2021/12/29 05:31:11;;;;;;;;;;;8.00;74.70;;;;;;5207340;28;20103;-30
2021/12/29 05:33:42;;;;;;;31.60;24.17;;;8.00;75.20;;;;;;5206508;28;20260;-28
2021/12/29 05:36:13;;;;;;;27.87;21.70;;;7.90;75.70;;;;;;5206817;28;20053;-34
2021/12/29 05:38:44;;;;;;;30.93;22.67;;;7.80;75.40;;;;;;5206323;28;20119;-32
2021/12/29 05:41:15;;;;;;;30.03;23.97;;;7.70;75.50;;;;;;5222171;28;20084;-28
2021/12/29 05:43:46;;;;;;;29.97;23.70;;;7.70;75.80;;;;;;5206422;28;20140;-30
2021/12/29 05:46:17;;;;;;;28.27;21.87;;;7.70;76.00;;;;;;5206158;28;20116;-28
2021/12/29 05:48:48;;;;;;;30.90;22.97;;;7.60;76.30;;;;;;5208406;28;20116;-34
2021/12/29 05:51:19;;;;;;;32.87;26.37;;;7.60;76.40;;;;;;5209581;28;20120;-32
2021/12/29 05:53:50;;;;;;;30.23;22.73;;;7.50;76.90;;;;;;5209826;28;20132;-29
2021/12/29 05:56:21;;;;;;;23.70;18.23;;;7.50;76.80;;;;;;5209642;28;20049;-32
2021/12/29 05:58:52;;;;;;;29.27;20.53;;;7.50;76.90;;;;;;5209735;28;20092;-30
2021/12/29 06:01:23;;;;;;;31.60;22.10;;;7.40;77.10;;;;;;5209777;28;20073;-30
2021/12/29 06:03:54;;;;;;;33.83;23.23;;;7.40;77.30;;;;;;5190929;28;20081;-29
2021/12/29 06:06:25;;;;;;;33.60;24.13;;;7.40;77.50;;;;;;5209868;28;20079;-31
2021/12/29 06:08:58;;;;;;;34.10;24.50;;;7.30;77.40;;;;;;5209010;28;20049;-30
2021/12/29 06:11:29;;;;;;;39.47;25.48;;;7.30;77.90;;;;;;5209824;28;20096;-30
2021/12/29 06:14:00;;;;;;;39.40;26.27;;;7.30;77.90;;;;;;5209516;28;20053;-34
2021/12/29 06:16:31;;;;;;;33.37;23.87;;;7.30;78.00;;;;;;5209693;28;20079;-34
2021/12/29 06:19:02;;;;;;;33.13;22.97;;;7.30;78.40;;;;;;5209722;28;20380;-31
2021/12/29 06:21:33;;;;;;;31.67;23.70;;;7.90;77.30;;;;;;5209291;28;20144;-32
2021/12/29 06:24:05;;;;;;;30.30;20.73;;;8.60;75.90;;;;;;5209713;28;20065;-35
2021/12/29 06:26:36;;;;;;;27.70;20.40;;;9.00;74.50;;;;;;5209940;28;20045;-33
2021/12/29 06:29:07;;;;;;;;;;;9.50;73.30;;;;;;5210147;28;20505;-37
2021/12/29 06:31:37;;;;;;;;;;;9.80;72.60;;;;;;5209846;28;19925;-31
2021/12/29 06:34:08;;;;;;;;;;;10.10;71.90;;;;;;5224836;28;20008;-29
2021/12/29 06:36:40;;;;;;;;;;;10.30;71.90;;;;;;5225201;28;20341;-32
2021/12/29 06:39:21;;;;;;;28.30;21.80;;;10.50;71.30;;;;;;5210881;28;19928;-37
2021/12/29 06:41:52;;;;;;;28.80;21.40;;;10.70;70.60;;;;;;5225674;28;20055;-31
2021/12/29 06:44:23;;;;;;;25.67;20.63;;;10.80;70.40;;;;;;5227187;28;20072;-33
2021/12/29 06:46:53;;;;;;;25.85;20.75;;;11.00;70.10;;;;;;5227670;28;19968;-29
2021/12/29 06:49:25;;;;;;;32.30;24.63;;;11.00;70.00;;;;;;5227475;28;20045;-28
2021/12/29 06:51:55;;;;;;;29.47;22.83;;;11.10;69.70;;;;;;5227121;28;20048;-32
2021/12/29 06:54:27;;;;;;;27.70;20.63;;;11.20;69.50;;;;;;5227273;28;19960;-34
2021/12/29 06:56:57;;;;;;;32.30;24.77;;;11.30;69.30;;;;;;5226892;28;20080;-32
2021/12/29 06:59:29;;;;;;;56.00;36.73;;;11.30;69.10;;;;;;5224555;28;20045;-33
2021/12/29 07:01:59;;;;;;;40.77;29.67;;;11.40;69.10;;;;;;5226240;28;20052;-32
2021/12/29 07:04:31;;;;;;;48.20;32.00;;;11.50;68.90;;;;;;5225719;28;20053;-35
2021/12/29 07:07:02;;;;;;;45.63;33.10;;;11.60;68.80;;;;;;5226557;28;20478;-34
2021/12/29 07:09:33;;;;;;;44.63;32.53;;;11.60;68.80;;;;;;5207782;28;20053;-31
2021/12/29 07:12:04;;;;;;;75.60;50.13;;;11.70;68.70;;;;;;5226329;28;20132;-29
2021/12/29 07:14:38;;;;;;;59.33;40.73;;;11.70;68.60;;;;;;5226823;28;20056;-35
2021/12/29 07:17:10;;;;;;;79.57;48.33;;;11.70;68.60;;;;;;5226651;28;20182;-35
2021/12/29 07:19:41;;;;;;;68.43;44.03;;;11.70;68.50;;;;;;5208321;28;20451;-30
2021/12/29 07:22:12;;;;;;;60.03;38.00;;;11.80;68.50;;;;;;5225952;28;20124;-32
2021/12/29 07:24:43;;;;;;;64.97;41.47;;;11.80;68.50;;;;;;5226552;28;20067;-30
2021/12/29 07:27:14;;;;;;;68.77;43.43;;;11.80;68.50;;;;;;5225950;28;20075;-33
2021/12/29 07:29:45;;;;;;;56.07;35.97;;;11.90;68.50;;;;;;5227889;28;20459;-33
2021/12/29 07:32:16;;;;;;;45.53;32.57;;;11.90;68.50;;;;;;5227441;28;20124;-31
2021/12/29 07:34:47;;;;;;;66.77;42.47;;;11.90;68.50;;;;;;5227934;28;20033;-31
2021/12/29 07:37:18;;;;;;;91.87;52.70;;;12.00;68.70;;;;;;5227969;28;20437;-36
2021/12/29 07:39:49;;;;;;;52.97;35.27;;;12.00;68.50;;;;;;5227893;28;20100;-29
2021/12/29 07:42:19;;;;;;;69.87;42.13;;;12.00;68.40;;;;;;5243476;28;20116;-33
2021/12/29 07:44:51;;;;;;;54.20;37.47;;;12.00;69.00;;;;;;5227804;28;20103;-31
2021/12/29 07:47:22;;;;;;;50.30;32.83;;;12.10;68.60;;;;;;5228438;28;20045;-35
2021/12/29 07:49:53;;;;;;;32.93;23.93;;;12.00;68.60;;;;;;5228581;28;20102;-31
2021/12/29 07:52:24;;;;;;;46.07;29.93;;;12.00;68.50;;;;;;5227803;28;20148;-36
2021/12/29 07:54:57;;;;;;;72.53;43.03;;;12.10;68.50;;;;;;5219731;28;20048;-30
2021/12/29 07:57:27;;;;;;;40.38;28.33;;;12.10;68.50;;;;;;5207653;28;20073;-33
2021/12/29 07:59:59;;;;;;;52.27;31.63;;;12.20;68.50;;;;;;5218614;28;20098;-31
2021/12/29 08:02:30;;;;;;;84.00;47.13;;;12.10;68.40;;;;;;5225702;28;20067;-36
2021/12/29 08:05:01;;;;;;;62.90;37.93;;;12.20;68.50;;;;;;5207957;28;20063;-35
2021/12/29 08:07:33;;;;;;;110.30;61.23;;;12.20;68.50;;;;;;5225327;28;20037;-38
2021/12/29 08:10:04;;;;;;;86.80;50.43;;;12.20;68.50;;;;;;5224549;28;20076;-35
2021/12/29 08:12:35;;;;;;;68.43;40.90;;;12.20;68.50;;;;;;5207726;28;20079;-29
2021/12/29 08:15:07;;;;;;;174.13;91.67;;;12.20;68.40;;;;;;5225603;28;20406;-31
2021/12/29 08:17:39;;;;;;;73.80;43.13;;;12.20;68.40;;;;;;5227593;28;20131;-31
2021/12/29 08:20:10;;;;;;;98.13;53.47;;;12.20;68.50;;;;;;5226892;28;20174;-32
2021/12/29 08:22:41;;;;;;;118.37;63.33;;;12.20;68.60;;;;;;5227808;28;20056;-31
2021/12/29 08:25:12;;;;;;;97.30;50.00;;;12.20;68.60;;;;;;5227786;28;20041;-33
2021/12/29 08:27:43;;;;;;;64.07;38.17;;;12.20;68.60;;;;;;5227643;28;20056;-33
2021/12/29 08:30:15;;;;;;;61.07;37.50;;;12.20;68.50;;;;;;5226256;28;20052;-29
2021/12/29 08:32:45;;;;;;;101.10;54.13;;;12.30;68.60;;;;;;5225685;28;20049;-33
2021/12/29 08:35:17;;;;;;;135.20;72.33;;;12.30;68.60;;;;;;5227270;28;20128;-31
2021/12/29 08:37:47;;;;;;;107.90;55.17;;;12.30;68.60;;;;;;5227605;28;20198;-31
2021/12/29 08:40:19;;;;;;;140.00;67.13;;;12.30;68.70;;;;;;5227452;28;20528;-34
2021/12/29 08:42:49;;;;;;;108.47;56.33;;;12.30;68.70;;;;;;5227187;28;20041;-33
2021/12/29 08:45:21;;;;;;;117.57;62.40;;;12.20;68.70;;;;;;5226504;28;20080;-31
2021/12/29 08:47:55;;;;;;;117.23;60.33;;;12.30;68.80;;;;;;5226489;28;20045;-36
2021/12/29 08:50:29;;;;;;;73.03;40.60;;;12.20;68.70;;;;;;5227237;28;20056;-35
2021/12/29 08:53:03;;;;;;;100.23;55.70;;;12.30;69.40;;;;;;5226936;28;20053;-31
2021/12/29 08:55:35;;;;;;;81.73;51.43;;;12.30;68.90;;;;;;5227288;28;20059;-29
2021/12/29 08:58:08;;;;;;;60.17;40.73;;;12.30;68.90;;;;;;5226857;28;20087;-33
2021/12/29 09:00:39;;;;;;;168.97;95.23;;;12.30;69.00;;;;;;5226816;28;20413;-29
2021/12/29 09:03:10;;;;;;;72.80;53.03;;;12.30;69.20;;;;;;5226893;28;20128;-33
2021/12/29 09:05:42;;;;;;;97.87;67.23;;;12.20;69.20;;;;;;5213975;28;20399;-29
2021/12/29 09:08:13;;;;;;;80.83;59.33;;;12.20;69.30;;;;;;5224148;28;20057;-32
2021/12/29 09:10:44;;;;;;;115.00;77.23;;;12.20;69.40;;;;;;5224732;28;20056;-32
2021/12/29 09:13:15;;;;;;;106.53;75.93;;;12.30;69.20;;;;;;5224616;28;20057;-32
2021/12/29 09:15:46;;;;;;;94.57;63.37;;;12.30;69.40;;;;;;5224826;28;20067;-31
2021/12/29 09:18:17;;;;;;;104.57;80.03;;;12.30;69.40;;;;;;5224692;28;20045;-31
2021/12/29 09:20:49;;;;;;;113.60;84.00;;;12.30;69.40;;;;;;5224466;28;20124;-32
2021/12/29 09:23:20;;;;;;;74.63;58.70;;;12.30;69.50;;;;;;5229737;28;20071;-33
2021/12/29 09:25:53;;;;;;;82.77;54.30;;;12.30;69.40;;;;;;5230752;28;20060;-29
2021/12/29 09:28:24;;;;;;;;;;;12.30;69.60;;;;;;5231117;28;20041;-32
2021/12/29 09:30:56;;;;;;;87.07;53.80;;;12.30;69.50;;;;;;5230440;28;19928;-35
2021/12/29 09:33:27;;;;;;;97.77;62.07;;;12.30;69.60;;;;;;5230136;28;20107;-33
2021/12/29 09:36:01;;;;;;;83.47;52.73;;;12.30;69.70;;;;;;5230695;28;20083;-34
2021/12/29 09:38:35;;;;;;;91.70;57.50;;;12.30;69.80;;;;;;5229460;28;20426;-29
2021/12/29 09:41:09;;;;;;;65.50;48.63;;;12.30;69.90;;;;;;5230413;28;20048;-34
2021/12/29 09:43:40;;;;;;;84.20;62.17;;;12.30;70.00;;;;;;5229600;28;20411;-31
2021/12/29 09:46:12;;;;;;;82.07;56.63;;;12.30;70.20;;;;;;5230398;28;20438;-33
2021/12/29 09:48:43;;;;;;;61.77;43.57;;;12.30;70.30;;;;;;5230747;28;20045;-29
2021/12/29 09:51:15;;;;;;;65.47;44.07;;;12.30;70.70;;;;;;5225997;28;20044;-33
2021/12/29 09:53:46;;;;;;;85.77;58.00;;;12.30;70.60;;;;;;5212051;28;20400;-29
2021/12/29 09:56:17;;;;;;;68.63;45.80;;;12.40;70.30;;;;;;5227781;28;20492;-29
2021/12/29 09:58:49;;;;;;;70.97;45.80;;;12.50;70.10;;;;;;5228179;28;20120;-34
2021/12/29 10:01:21;;;;;;;63.77;41.93;;;12.60;70.10;;;;;;5228130;28;20044;-30
2021/12/29 10:03:51;;;;;;;76.77;50.07;;;12.70;69.90;;;;;;5227692;28;20045;-33
2021/12/29 10:06:23;;;;;;;69.23;47.80;;;12.80;69.80;;;;;;5228535;28;20049;-32
2021/12/29 10:08:54;;;;;;;46.50;34.57;;;12.80;69.90;;;;;;5228388;28;20063;-33
2021/12/29 10:11:30;;;;;;;60.77;42.10;;;12.80;69.80;;;;;;5229049;28;20045;-31
2021/12/29 10:14:01;;;;;;;74.70;51.80;;;12.80;69.90;;;;;;5222446;28;20511;-36
2021/12/29 10:16:32;;;;;;;66.73;45.27;;;12.80;70.00;;;;;;5175161;28;20045;-32
2021/12/29 10:19:08;;;;;;;75.77;51.40;;;12.90;70.00;;;;;;5208923;28;20045;-31
2021/12/29 10:21:44;;;;;;;42.37;32.37;;;12.80;70.10;;;;;;5209504;28;20503;-31
2021/12/29 10:24:17;;;;;;;72.20;50.30;;;12.80;70.10;;;;;;5191912;28;20049;-30
2021/12/29 10:26:49;;;;;;;92.00;58.50;;;12.80;70.10;;;;;;5191570;28;20052;-28
2021/12/29 10:29:20;;;;;;;52.67;38.90;;;12.80;70.30;;;;;;5208357;28;20077;-34
2021/12/29 10:31:56;;;;;;;79.97;52.80;;;12.80;70.40;;;;;;5208971;28;20050;-30
2021/12/29 10:34:29;;;;;;;102.70;69.53;;;12.80;70.50;;;;;;5190656;28;20072;-29
2021/12/29 10:37:04;;;;;;;63.23;44.37;;;12.80;70.60;;;;;;5208288;28;20548;-29
2021/12/29 10:39:40;;;;;;;67.27;49.47;;;12.80;70.70;;;;;;5195571;28;20442;-33
2021/12/29 10:42:18;;;;;;;57.27;41.53;;;12.80;70.70;;;;;;5212526;28;20044;-35
2021/12/29 10:45:00;;;;;;;67.83;51.93;;;12.80;70.80;;;;;;5226560;28;20044;-30
2021/12/29 10:47:33;;;;;;;67.37;50.47;;;12.70;71.00;;;;;;5193481;28;20099;-34
2021/12/29 10:50:12;;;;;;;72.25;54.17;;;12.70;71.20;;;;;;5226683;28;20052;-33
2021/12/29 10:52:44;;;;;;;49.13;37.97;;;12.70;71.20;;;;;;5209306;28;20048;-28
2021/12/29 10:55:31;;;;;;;57.17;42.53;;;12.70;71.10;;;;;;5227715;28;20052;-30
2021/12/29 10:58:10;;;;;;;107.60;67.47;;;12.70;71.10;;;;;;5228700;28;20379;-30
2021/12/29 11:00:44;;;;;;;70.77;48.93;;;12.80;71.20;;;;;;5228223;28;20517;-33
2021/12/29 11:03:20;;;;;;;76.67;51.63;;;12.80;71.00;;;;;;5228768;28;20048;-30
2021/12/29 11:05:59;;;;;;;59.83;43.83;;;12.90;70.90;;;;;;5211221;28;20060;-29
2021/12/29 11:08:45;;;;;;;71.27;50.83;;;12.90;70.90;;;;;;5228457;28;20378;-33
2021/12/29 11:11:16;;;;;;;65.67;47.13;;;12.90;70.90;;;;;;5227903;28;20107;-33
2021/12/29 11:13:47;;;;;;;75.87;52.93;;;12.90;70.90;;;;;;5210305;28;20085;-33
2021/12/29 11:16:18;;;;;;;84.17;59.50;;;12.90;70.90;;;;;;5228542;28;20479;-31
2021/12/29 11:18:51;;;;;;;67.30;48.57;;;12.90;70.90;;;;;;5228627;28;20040;-33
2021/12/29 11:21:29;;;;;;;69.83;51.13;;;12.90;70.80;;;;;;5228464;28;20049;-30
2021/12/29 11:24:16;;;;;;;54.50;40.40;;;12.90;71.10;;;;;;5228660;28;20439;-28
2021/12/29 11:26:50;;;;;;;73.70;50.87;;;12.80;71.00;;;;;;5228488;28;20047;-31
2021/12/29 11:29:22;;;;;;;65.03;49.90;;;12.80;71.20;;;;;;5228610;28;20047;-32
2021/12/29 11:32:01;;;;;;;60.93;45.30;;;12.80;71.20;;;;;;5210510;28;20052;-30
2021/12/29 11:34:32;;;;;;;58.77;42.80;;;12.80;71.20;;;;;;5210907;28;20052;-29
2021/12/29 11:37:05;;;;;;;55.23;43.50;;;12.80;71.10;;;;;;5227907;28;20098;-30
2021/12/29 11:39:38;;;;;;;56.95;43.55;;;12.80;70.90;;;;;;5227874;28;20040;-29
2021/12/29 11:42:09;;;;;;;90.43;61.78;;;12.80;70.70;;;;;;5210187;28;20094;-32
2021/12/29 11:44:41;;;;;;;70.37;50.83;;;12.80;70.50;;;;;;5227325;28;20055;-32
2021/12/29 11:47:12;;;;;;;66.07;49.17;;;12.80;70.50;;;;;;5228207;28;20102;-30
2021/12/29 11:49:44;;;;;;;67.83;47.57;;;12.80;70.50;;;;;;5227024;28;20068;-30
2021/12/29 11:52:29;;;;;;;63.67;50.37;;;12.80;70.50;;;;;;5226816;28;20486;-33
2021/12/29 11:55:21;;;;;;;62.63;46.47;;;12.90;70.60;;;;;;5226261;28;20536;-32
2021/12/29 11:57:52;;;;;;;59.37;45.27;;;12.80;70.60;;;;;;5227766;28;20094;-31
2021/12/29 12:00:23;;;;;;;61.53;46.03;;;12.90;70.60;;;;;;5226920;28;20052;-29
2021/12/29 12:03:12;;;;;;;73.63;52.93;;;12.90;70.60;;;;;;5226708;28;20082;-31
2021/12/29 12:05:47;;;;;;;67.50;48.17;;;12.90;70.60;;;;;;5227821;28;20068;-28
2021/12/29 12:08:24;;;;;;;56.77;42.60;;;12.90;70.60;;;;;;5226604;28;20177;-30
2021/12/29 12:11:00;;;;;;;59.37;44.27;;;12.90;70.60;;;;;;5227351;28;20106;-32
2021/12/29 12:13:34;;;;;;;58.83;44.53;;;12.90;70.70;;;;;;5228067;28;20406;-32
2021/12/29 12:16:12;;;;;;;57.30;42.63;;;12.90;70.80;;;;;;5226837;28;20086;-31
2021/12/29 12:18:45;;;;;;;52.63;40.53;;;12.90;70.90;;;;;;5226240;28;20513;-35
2021/12/29 12:21:24;;;;;;;123.28;81.47;;;12.80;70.90;;;;;;5227849;28;20108;-32
2021/12/29 12:24:17;;;;;;;153.50;93.10;;;12.80;71.10;;;;;;5227559;28;20052;-29
2021/12/29 12:26:55;;;;;;;148.40;92.63;;;12.80;71.60;;;;;;5226787;28;20057;-30
2021/12/29 12:29:29;;;;;;;117.47;80.13;;;12.80;72.00;;;;;;5227931;28;20045;-35
2021/12/29 12:32:03;;;;;;;151.27;99.50;;;12.80;71.90;;;;;;5227739;28;20045;-32
2021/12/29 12:34:34;;;;;;;153.90;99.57;;;12.90;72.00;;;;;;5227721;28;20079;-32
2021/12/29 12:37:14;;;;;;;171.53;106.37;;;12.90;71.90;;;;;;5227569;28;20067;-37
2021/12/29 12:40:02;;;;;;;114.00;74.03;;;12.90;71.80;;;;;;5227794;28;20445;-32
2021/12/29 12:42:34;;;;;;;63.33;47.63;;;12.90;72.40;;;;;;5227765;28;20053;-30
2021/12/29 12:45:19;;;;;;;73.77;53.73;;;12.80;71.60;;;;;;5226429;28;20043;-31
2021/12/29 12:47:50;;;;;;;66.20;48.90;;;12.80;71.60;;;;;;5227901;28;20041;-31
2021/12/29 12:50:27;;;;;;;79.43;58.50;;;12.80;71.70;;;;;;5226578;28;20386;-31
2021/12/29 12:52:58;;;;;;;71.50;51.67;;;12.80;71.60;;;;;;5227746;28;20048;-31
2021/12/29 12:55:40;;;;;;;81.63;55.43;;;12.80;71.70;;;;;;5227216;28;20080;-32
2021/12/29 12:58:12;;;;;;;100.83;70.33;;;12.80;71.70;;;;;;5232443;28;20053;-31
2021/12/29 13:00:48;;;;;;;115.77;83.33;;;12.80;71.80;;;;;;5231849;28;20441;-31
2021/12/29 13:03:21;;;;;;;75.03;54.70;;;12.80;71.80;;;;;;5231722;28;20076;-28
2021/12/29 13:05:55;;;;;;;60.70;44.67;;;12.80;71.90;;;;;;5213997;28;20454;-32
2021/12/29 13:08:31;;;;;;;87.50;62.57;;;12.80;72.10;;;;;;5232215;28;20053;-33
2021/12/29 13:11:22;;;;;;;97.57;71.47;;;12.80;72.10;;;;;;5230356;28;20484;-36
2021/12/29 13:13:54;;;;;;;66.30;47.37;;;12.80;72.10;;;;;;5231880;28;20474;-33
2021/12/29 13:16:25;;;;;;;79.00;54.43;;;12.70;72.20;;;;;;5230703;28;20052;-29
2021/12/29 13:18:57;;;;;;;74.07;52.30;;;12.70;72.10;;;;;;5231540;28;20041;-35
2021/12/29 13:21:40;;;;;;;75.10;53.40;;;12.70;72.20;;;;;;5231423;28;20044;-32
2021/12/29 13:24:12;;;;;;;74.32;54.55;;;12.80;72.20;;;;;;5231502;28;20107;-33
2021/12/29 13:26:45;;;;;;;121.57;85.47;;;12.80;72.20;;;;;;5230134;28;20123;-29
2021/12/29 13:29:17;;;;;;;;;;;12.70;72.20;;;;;;5232033;28;20044;-33
2021/12/29 13:31:48;;;;;;;89.23;61.23;;;12.70;72.40;;;;;;5231211;28;19924;-36
2021/12/29 13:34:19;;;;;;;84.90;57.53;;;12.70;73.00;;;;;;5229965;28;20128;-32
2021/12/29 13:36:50;;;;;;;124.90;80.53;;;12.60;73.20;;;;;;5231107;28;20136;-29